Emporium, Pennsylvania
Current Conditions -  °F | °C
As of 7:53 AM on Sunday 23 Nov 2014 (Local Time) from KBFD Reporting Station
Overcast Overcast  
Wind Chill: 39°   Ceiling: 2900
Heat Index: 42°   Visibility: 10mi
Dew Point: 31°   Wind: 5mph
Humidity: 65%   Direction: 200°SSW
Pressure: 30.08"   Gusts: NA
Location:  41.51°N, 78.24°W
Report Text: KBFD 231253Z AUTO 20004KT 10SM OVC029 06/M01 A3008 RMK AO2 SLP197 T00561006
Loading
Personal Weather Stations






























Interactive Weather Map New forecast layout! Learn more

10-Day Weather Forecast

Advertisements
Track Severe Weather on mobile